TKS weather

Tokushima Airport/JMSDF Air Base
Tokushima, Tokushima Prefecture, Japan

Public forecast

Using degrees Celsius for public forecast. Weather courtesy of forecast.io.

METAR (pilot weather report)

Retrieved 2019/05/19 17:00 UTC (52 minutes ago):

RJOS 191700Z 18019KT 9999 -SHRA FEW015 BKN030 BKN050 19/17 Q1014

TAF (pilot weather forecast)

Closest forecast is Takamatsu Airport, 29.8 nm (55.1 km) W. Retrieved 2019/05/19 12:30 UTC (5 hours ago):

TAF TAF RJOT 191109Z 1912/2018 10008KT 9999 -RA FEW025 SCT040 TEMPO 1917/1920 4000 RA BR BECMG 2012/2015 25011KT TEMPO 2012/2018 2500 SHRA BR FEW001 BKN008 BKN015